createdAt,value
2023-03-27T00:00:34.525Z,80.03
2023-03-27T00:03:43.884Z,80.09
2023-03-27T00:06:52.113Z,80.11
2023-03-27T00:09:58.456Z,80.04
2023-03-27T00:13:05.820Z,79.99
2023-03-27T00:16:13.219Z,80.00
2023-03-27T00:19:21.652Z,79.98
2023-03-27T00:22:27.879Z,80.06
2023-03-27T00:25:34.358Z,80.13
2023-03-27T00:28:42.245Z,80.21
2023-03-27T00:31:48.332Z,80.25
2023-03-27T00:34:54.462Z,80.23
2023-03-27T00:38:02.216Z,80.23
2023-03-27T00:41:10.417Z,80.21
2023-03-27T00:44:18.498Z,80.18
2023-03-27T00:47:25.463Z,80.17
2023-03-27T00:50:35.064Z,80.18
2023-03-27T00:53:44.352Z,80.26
2023-03-27T00:56:50.372Z,80.34
2023-03-27T00:59:57.593Z,80.35
2023-03-27T01:03:04.886Z,80.40
2023-03-27T01:06:12.474Z,80.43
2023-03-27T01:09:20.287Z,80.46
2023-03-27T01:12:37.813Z,80.47
2023-03-27T01:16:00.970Z,80.47
2023-03-27T01:19:53.036Z,80.48
2023-03-27T01:23:58.892Z,80.52
2023-03-27T01:27:26.420Z,80.52
2023-03-27T01:30:55.875Z,80.61
2023-03-27T01:34:36.195Z,80.65
2023-03-27T01:38:11.052Z,80.66
2023-03-27T01:41:25.491Z,80.72
2023-03-27T01:44:45.521Z,80.69
2023-03-27T01:48:19.738Z,80.76
2023-03-27T01:51:30.738Z,80.81
2023-03-27T01:54:50.201Z,80.84
2023-03-27T01:58:20.949Z,80.83
2023-03-27T02:01:28.949Z,80.79
2023-03-27T02:04:49.399Z,80.78
2023-03-27T02:08:00.347Z,80.78
2023-03-27T02:11:11.546Z,80.81
2023-03-27T02:14:23.736Z,80.90
2023-03-27T02:17:32.751Z,80.94
2023-03-27T02:20:40.004Z,80.91
2023-03-27T02:23:47.872Z,80.97
2023-03-27T02:26:54.192Z,80.92
2023-03-27T02:30:08.905Z,80.87
2023-03-27T02:33:53.949Z,80.76
2023-03-27T02:37:13.825Z,80.64
2023-03-27T02:40:50.096Z,80.58
2023-03-27T02:44:20.700Z,80.48
2023-03-27T02:47:35.013Z,80.42
2023-03-27T02:51:03.006Z,80.43
2023-03-27T02:54:28.050Z,80.40
2023-03-27T02:57:39.018Z,80.42
2023-03-27T03:00:55.487Z,80.48
2023-03-27T03:04:24.683Z,80.49
2023-03-27T03:07:39.803Z,80.54
2023-03-27T03:10:48.002Z,80.64
2023-03-27T03:13:56.882Z,80.70
2023-03-27T03:17:06.009Z,80.74
2023-03-27T03:20:12.752Z,80.79
2023-03-27T03:23:19.520Z,80.73
2023-03-27T03:26:26.370Z,80.70
2023-03-27T03:29:35.865Z,80.61
2023-03-27T03:32:44.939Z,80.57
2023-03-27T03:39:06.136Z,80.61
2023-03-27T03:42:22.643Z,80.67
2023-03-27T03:45:23.967Z,80.75
2023-03-27T03:48:30.706Z,80.74
2023-03-27T03:51:38.162Z,80.71
2023-03-27T03:54:46.903Z,80.72
2023-03-27T03:57:55.617Z,80.85
2023-03-27T04:01:02.117Z,80.95
2023-03-27T04:04:16.299Z,80.98
2023-03-27T04:07:28.796Z,81.02
2023-03-27T04:10:37.511Z,81.03
2023-03-27T04:13:47.775Z,81.02
2023-03-27T04:16:55.388Z,81.02
2023-03-27T04:20:03.754Z,81.07
2023-03-27T04:23:10.043Z,81.11
2023-03-27T04:26:17.894Z,81.15
2023-03-27T04:29:41.353Z,81.19
2023-03-27T04:33:08.257Z,81.21
2023-03-27T04:36:24.538Z,81.31
2023-03-27T04:39:47.894Z,81.36
2023-03-27T04:42:57.111Z,81.39
2023-03-27T04:46:04.429Z,81.42
2023-03-27T04:49:10.110Z,81.45
2023-03-27T04:52:23.254Z,81.45
2023-03-27T04:55:31.981Z,81.41
2023-03-27T04:58:40.848Z,81.35
2023-03-27T05:01:50.072Z,81.30
2023-03-27T05:05:01.925Z,81.32
2023-03-27T05:08:09.299Z,81.30
2023-03-27T05:11:18.187Z,81.32
2023-03-27T05:14:25.657Z,81.31
2023-03-27T05:17:33.793Z,81.38
2023-03-27T05:20:41.059Z,81.36
2023-03-27T05:23:49.517Z,81.42
2023-03-27T05:26:55.778Z,81.49
2023-03-27T05:30:03.060Z,81.54
2023-03-27T05:33:08.449Z,81.61
2023-03-27T05:36:16.938Z,81.66
2023-03-27T05:39:24.282Z,81.64
2023-03-27T05:42:30.390Z,81.67
2023-03-27T05:45:37.419Z,81.72
2023-03-27T05:48:43.400Z,81.64
2023-03-27T05:51:49.254Z,81.62
2023-03-27T05:54:55.690Z,81.64
2023-03-27T05:58:01.679Z,81.67
2023-03-27T06:01:10.324Z,81.63
2023-03-27T06:04:16.096Z,81.65
2023-03-27T06:07:25.207Z,81.66
2023-03-27T06:10:33.647Z,81.70
2023-03-27T06:13:46.734Z,81.66
2023-03-27T06:16:56.706Z,81.64
2023-03-27T06:20:19.772Z,81.67
2023-03-27T06:23:24.431Z,81.68
2023-03-27T06:26:29.331Z,81.67
2023-03-27T06:29:36.289Z,81.71
2023-03-27T06:32:43.820Z,81.72
2023-03-27T06:35:53.403Z,81.79
2023-03-27T06:38:58.622Z,81.82
2023-03-27T06:42:05.646Z,81.87
2023-03-27T06:45:23.772Z,81.93
2023-03-27T06:48:31.107Z,81.94
2023-03-27T06:51:39.264Z,81.94
2023-03-27T06:54:46.562Z,81.82
2023-03-27T06:58:02.297Z,81.81
2023-03-27T07:01:30.176Z,81.75
2023-03-27T07:05:03.805Z,81.77
2023-03-27T07:08:11.408Z,81.78
2023-03-27T07:11:14.056Z,81.80
2023-03-27T07:14:26.137Z,81.88
2023-03-27T07:17:45.587Z,81.86
2023-03-27T07:20:40.464Z,81.80
2023-03-27T07:23:49.168Z,81.77
2023-03-27T07:27:03.813Z,81.74
2023-03-27T07:30:09.213Z,81.78
2023-03-27T07:33:18.176Z,81.75
2023-03-27T07:36:25.196Z,81.72
2023-03-27T07:39:35.942Z,81.66
2023-03-27T07:42:41.470Z,81.64
2023-03-27T07:45:49.933Z,81.72
2023-03-27T07:48:57.864Z,81.75
2023-03-27T07:52:04.316Z,81.74
2023-03-27T07:55:13.815Z,81.63
2023-03-27T07:58:24.874Z,81.61
2023-03-27T08:01:33.859Z,81.59
2023-03-27T08:04:42.518Z,81.47
2023-03-27T08:07:52.457Z,81.39
2023-03-27T08:11:03.956Z,81.39
2023-03-27T08:14:12.757Z,81.40
2023-03-27T08:17:21.436Z,81.40
2023-03-27T08:20:26.448Z,81.31
2023-03-27T08:23:38.409Z,81.31
2023-03-27T08:26:48.612Z,81.19
2023-03-27T08:29:54.744Z,81.03
2023-03-27T08:33:01.642Z,80.99
2023-03-27T08:36:00.533Z,80.94
2023-03-27T08:39:09.101Z,80.91
2023-03-27T08:42:20.213Z,80.85
2023-03-27T08:45:35.271Z,80.81
2023-03-27T08:49:11.223Z,80.72
2023-03-27T08:52:31.573Z,80.62
2023-03-27T08:55:52.994Z,80.56
2023-03-27T08:59:04.559Z,80.50
2023-03-27T09:02:36.494Z,80.60
2023-03-27T09:06:09.056Z,80.58
2023-03-27T09:09:48.932Z,80.47
2023-03-27T09:13:28.963Z,80.25
2023-03-27T09:16:56.230Z,80.24
2023-03-27T09:20:14.521Z,80.12
2023-03-27T09:23:32.648Z,79.92
2023-03-27T09:27:04.546Z,79.85
2023-03-27T09:30:06.356Z,79.59
2023-03-27T09:33:20.947Z,79.35
2023-03-27T09:36:28.529Z,79.19
2023-03-27T09:39:48.379Z,78.96
2023-03-27T09:42:58.862Z,78.84
2023-03-27T09:46:08.199Z,78.88
2023-03-27T09:49:35.835Z,78.89
2023-03-27T09:52:55.276Z,78.93
2023-03-27T09:56:20.149Z,78.89
2023-03-27T09:59:46.188Z,78.91
2023-03-27T10:02:55.576Z,78.96
2023-03-27T10:06:01.666Z,78.99
2023-03-27T10:09:13.915Z,78.94
2023-03-27T10:12:33.657Z,78.69
2023-03-27T10:15:55.713Z,78.54
2023-03-27T10:19:07.320Z,78.34
2023-03-27T10:22:19.759Z,78.12
2023-03-27T10:25:36.381Z,78.08
2023-03-27T10:28:52.076Z,78.01
2023-03-27T10:32:12.906Z,77.73
2023-03-27T10:35:41.068Z,77.54
2023-03-27T10:38:53.853Z,77.32
2023-03-27T10:42:22.990Z,77.25
2023-03-27T10:45:34.928Z,77.17
2023-03-27T10:48:49.861Z,77.20
2023-03-27T10:52:37.584Z,76.84
2023-03-27T10:56:19.921Z,76.69
2023-03-27T10:59:41.552Z,76.57
2023-03-27T11:03:05.647Z,76.28
2023-03-27T11:06:12.217Z,76.13
2023-03-27T11:09:51.499Z,76.17
2023-03-27T11:13:12.770Z,76.02
2023-03-27T11:16:27.918Z,75.73
2023-03-27T11:20:08.041Z,75.83
2023-03-27T11:23:30.318Z,75.79
2023-03-27T11:26:52.841Z,75.77
2023-03-27T11:30:15.619Z,75.48
2023-03-27T11:33:35.540Z,75.11
2023-03-27T11:37:01.168Z,74.61
2023-03-27T11:40:19.925Z,74.29
2023-03-27T11:43:33.938Z,74.04
2023-03-27T11:47:08.794Z,73.67
2023-03-27T11:50:30.601Z,73.71
2023-03-27T11:54:19.233Z,73.48
2023-03-27T11:57:39.459Z,73.36
2023-03-27T12:01:07.736Z,72.94
2023-03-27T12:04:50.111Z,72.46
2023-03-27T12:08:25.154Z,71.95
2023-03-27T12:11:31.855Z,71.45
2023-03-27T12:14:55.693Z,71.74
2023-03-27T12:18:36.185Z,72.07
2023-03-27T12:22:22.467Z,72.19
2023-03-27T12:25:46.948Z,71.80
2023-03-27T12:29:42.680Z,71.50
2023-03-27T12:33:12.340Z,71.30
2023-03-27T12:36:20.767Z,70.41
2023-03-27T12:39:37.975Z,70.04
2023-03-27T12:43:08.281Z,70.05
2023-03-27T12:46:32.625Z,70.00
2023-03-27T12:49:55.718Z,69.75
2023-03-27T12:53:03.892Z,69.22
2023-03-27T12:56:35.998Z,68.92
2023-03-27T12:59:42.892Z,68.84
2023-03-27T13:03:30.193Z,68.19
2023-03-27T13:06:57.942Z,67.78
2023-03-27T13:10:51.720Z,67.41
2023-03-27T13:14:24.055Z,66.93
2023-03-27T13:17:56.305Z,66.36
2023-03-27T13:21:26.985Z,66.07
2023-03-27T13:24:52.721Z,65.87
2023-03-27T13:28:29.230Z,65.61
2023-03-27T13:32:02.537Z,65.32
2023-03-27T13:35:25.627Z,65.04
2023-03-27T13:38:32.342Z,64.68
2023-03-27T13:42:02.533Z,64.24
2023-03-27T13:45:33.698Z,64.09
2023-03-27T13:49:39.637Z,63.96
2023-03-27T13:53:27.945Z,63.77
2023-03-27T13:57:21.056Z,63.37
2023-03-27T14:00:56.117Z,62.96
2023-03-27T14:04:21.892Z,62.63
2023-03-27T14:07:52.810Z,62.09
2023-03-27T14:11:23.271Z,61.72
2023-03-27T14:14:49.161Z,61.52
2023-03-27T14:18:37.277Z,61.18
2023-03-27T14:21:43.199Z,60.84
2023-03-27T14:24:52.861Z,60.26
2023-03-27T14:28:08.128Z,60.08
2023-03-27T14:31:15.163Z,59.89
2023-03-27T14:34:51.032Z,59.76
2023-03-27T14:38:00.924Z,59.48
2023-03-27T14:41:14.471Z,59.21
2023-03-27T14:44:28.345Z,58.98
2023-03-27T14:47:35.379Z,58.81
2023-03-27T14:50:42.381Z,58.57
2023-03-27T14:53:53.811Z,58.36
2023-03-27T14:57:01.220Z,58.13
2023-03-27T15:00:10.153Z,57.82
2023-03-27T15:03:22.987Z,57.64
2023-03-27T15:06:33.039Z,57.44
2023-03-27T15:09:40.640Z,57.26
2023-03-27T15:13:00.719Z,57.10
2023-03-27T15:16:13.375Z,56.91
2023-03-27T15:19:33.995Z,56.71
2023-03-27T15:22:48.863Z,56.42
2023-03-27T15:26:03.620Z,56.22
2023-03-27T15:29:24.345Z,56.06
2023-03-27T15:32:31.715Z,55.94
2023-03-27T15:35:44.569Z,55.81
2023-03-27T15:38:52.177Z,55.69
2023-03-27T15:41:58.537Z,55.58
2023-03-27T15:45:05.210Z,55.51
2023-03-27T15:48:32.895Z,55.42
2023-03-27T15:51:43.868Z,55.34
2023-03-27T15:54:50.303Z,55.24
2023-03-27T15:57:56.633Z,55.19
2023-03-27T16:01:18.452Z,55.12
2023-03-27T16:04:29.463Z,55.12
2023-03-27T16:07:57.448Z,55.12
2023-03-27T16:11:04.473Z,55.11
2023-03-27T16:14:13.453Z,55.04
2023-03-27T16:17:31.786Z,55.00
2023-03-27T16:20:43.168Z,55.06
2023-03-27T16:23:49.134Z,55.10
2023-03-27T16:26:55.078Z,55.09
2023-03-27T16:30:01.573Z,55.03
2023-03-27T16:33:09.210Z,55.03
2023-03-27T16:36:15.625Z,55.04
2023-03-27T16:39:22.178Z,55.05
2023-03-27T16:42:29.678Z,55.03
2023-03-27T16:45:34.712Z,55.04
2023-03-27T16:48:40.930Z,55.04
2023-03-27T16:51:46.734Z,55.04
2023-03-27T16:54:53.861Z,55.12
2023-03-27T16:58:02.787Z,55.10
2023-03-27T17:01:08.599Z,55.08
2023-03-27T17:04:16.605Z,55.13
2023-03-27T17:07:25.470Z,55.12
2023-03-27T17:10:31.332Z,55.12
2023-03-27T17:13:42.380Z,55.13
2023-03-27T17:16:47.473Z,55.14
2023-03-27T17:19:52.721Z,55.18
2023-03-27T17:22:58.540Z,55.21
2023-03-27T17:26:04.580Z,55.22
2023-03-27T17:29:15.859Z,55.25
2023-03-27T17:32:22.271Z,55.27
2023-03-27T17:35:28.623Z,55.31
2023-03-27T17:38:35.973Z,55.37
2023-03-27T17:41:43.717Z,55.39
2023-03-27T17:44:52.416Z,55.38
2023-03-27T17:47:59.484Z,55.43
2023-03-27T17:51:09.306Z,55.43
2023-03-27T17:54:12.207Z,55.45
2023-03-27T17:57:18.293Z,55.50
2023-03-27T18:00:26.265Z,55.51
2023-03-27T18:03:34.297Z,55.52
2023-03-27T18:06:41.002Z,55.56
2023-03-27T18:09:47.077Z,55.57
2023-03-27T18:12:51.907Z,55.61
2023-03-27T18:16:00.281Z,55.53
2023-03-27T18:19:06.916Z,55.60
2023-03-27T18:22:12.923Z,55.67
2023-03-27T18:25:20.713Z,55.72
2023-03-27T18:28:28.514Z,55.73
2023-03-27T18:31:35.656Z,55.75
2023-03-27T18:34:41.676Z,55.77
2023-03-27T18:37:49.898Z,55.78
2023-03-27T18:40:55.421Z,55.74
2023-03-27T18:44:03.051Z,55.87
2023-03-27T18:47:08.996Z,55.86
2023-03-27T18:50:15.890Z,55.93
2023-03-27T18:53:22.745Z,55.96
2023-03-27T18:56:22.978Z,56.05
2023-03-27T18:59:27.450Z,55.93
2023-03-27T19:02:33.188Z,56.02
2023-03-27T19:05:39.764Z,56.11
2023-03-27T19:08:48.450Z,56.18
2023-03-27T19:11:54.677Z,56.24
2023-03-27T19:15:20.392Z,56.29
2023-03-27T19:18:25.596Z,56.29
2023-03-27T19:21:36.370Z,56.34
2023-03-27T19:24:44.391Z,56.40
2023-03-27T19:27:51.347Z,56.53
2023-03-27T19:31:00.501Z,56.59
2023-03-27T19:34:09.891Z,56.53
2023-03-27T19:37:17.149Z,56.60
2023-03-27T19:40:23.806Z,56.68
2023-03-27T19:43:29.933Z,56.74
2023-03-27T19:46:36.527Z,56.76
2023-03-27T19:49:42.619Z,56.79
2023-03-27T19:53:01.528Z,56.89
2023-03-27T19:56:00.337Z,56.96
2023-03-27T19:59:05.628Z,56.94
2023-03-27T20:02:12.799Z,56.99
2023-03-27T20:05:21.750Z,56.99
2023-03-27T20:08:28.312Z,56.98
2023-03-27T20:11:34.364Z,56.99
2023-03-27T20:14:40.555Z,57.07
2023-03-27T20:17:46.514Z,57.09
2023-03-27T20:20:58.093Z,57.17
2023-03-27T20:24:06.845Z,57.20
2023-03-27T20:27:14.898Z,57.26
2023-03-27T20:30:21.910Z,57.29
2023-03-27T20:33:29.234Z,57.35
2023-03-27T20:36:35.041Z,57.42
2023-03-27T20:39:48.565Z,57.40
2023-03-27T20:42:58.997Z,57.48
2023-03-27T20:46:06.873Z,57.56
2023-03-27T20:49:14.345Z,57.60
2023-03-27T20:52:21.011Z,57.66
2023-03-27T20:58:36.944Z,57.76
2023-03-27T21:01:46.612Z,57.81
2023-03-27T21:04:53.100Z,57.80
2023-03-27T21:07:59.774Z,57.84
2023-03-27T21:11:10.694Z,57.94
2023-03-27T21:14:16.118Z,58.01
2023-03-27T21:17:22.401Z,58.03
2023-03-27T21:20:27.367Z,58.05
2023-03-27T21:23:33.176Z,58.08
2023-03-27T21:26:39.360Z,58.07
2023-03-27T21:29:45.764Z,58.14
2023-03-27T21:32:52.771Z,58.17
2023-03-27T21:35:59.851Z,58.17
2023-03-27T21:39:06.351Z,58.26
2023-03-27T21:42:13.334Z,58.35
2023-03-27T21:45:19.672Z,58.34
2023-03-27T21:48:27.171Z,58.43
2023-03-27T21:51:33.932Z,58.51
2023-03-27T21:54:49.896Z,58.60
2023-03-27T21:57:50.213Z,58.73
2023-03-27T22:00:57.452Z,58.79
2023-03-27T22:04:06.552Z,58.84
2023-03-27T22:07:11.921Z,58.93
2023-03-27T22:10:19.115Z,58.91
2023-03-27T22:13:25.150Z,58.92
2023-03-27T22:16:31.349Z,58.98
2023-03-27T22:19:37.369Z,59.06
2023-03-27T22:22:43.593Z,59.16
2023-03-27T22:25:51.313Z,59.24
2023-03-27T22:28:59.173Z,59.27
2023-03-27T22:32:06.905Z,59.38
2023-03-27T22:35:12.372Z,59.47
2023-03-27T22:38:18.174Z,59.53
2023-03-27T22:41:27.165Z,59.60
2023-03-27T22:44:33.071Z,59.63
2023-03-27T22:47:39.636Z,59.67
2023-03-27T22:50:46.753Z,59.77
2023-03-27T22:53:53.328Z,59.80
2023-03-27T22:57:01.666Z,59.82
2023-03-27T23:00:08.690Z,59.94
2023-03-27T23:03:14.823Z,59.97
2023-03-27T23:06:21.986Z,60.04
2023-03-27T23:09:27.664Z,60.06
2023-03-27T23:12:32.906Z,60.18
2023-03-27T23:15:38.407Z,60.25
2023-03-27T23:18:45.517Z,60.32
2023-03-27T23:21:52.031Z,60.38
2023-03-27T23:24:59.458Z,60.52
2023-03-27T23:28:06.148Z,60.55
2023-03-27T23:31:14.662Z,60.58
2023-03-27T23:34:23.696Z,60.70
2023-03-27T23:37:30.206Z,60.72
2023-03-27T23:40:36.471Z,60.71
2023-03-27T23:43:43.465Z,60.79
2023-03-27T23:46:42.712Z,60.84
2023-03-27T23:49:43.085Z,60.94
2023-03-27T23:52:51.667Z,61.05
2023-03-27T23:55:58.743Z,61.12
2023-03-27T23:59:04.610Z,61.27
